Time;durP1;ratioP1;P1;durP2;ratioP2;P2;SDS_P1;SDS_P2;PMS_P1;PMS_P2;Temp;Humidity;BMP_temperature;BMP_pressure;BME280_temperature;BME280_humidity;BME280_pressure;Samples;Min_cycle;Max_cycle;Signal;HPM_P1;HPM_P2
2021/06/02 00:00:17;;;;;;;0.77;0.77;;;;;;;21.72;50.13;94525.94;4993752;28;96854;-63
2021/06/02 00:02:46;;;;;;;0.70;0.70;;;;;;;21.73;49.59;94533.81;5012155;28;96899;-63
2021/06/02 00:05:12;;;;;;;0.43;0.43;;;;;;;21.74;49.79;94529.06;5011623;28;99444;-63
2021/06/02 00:07:40;;;;;;;0.63;0.60;;;;;;;21.72;49.72;94537.75;5011656;28;99078;-63
2021/06/02 00:10:05;;;;;;;0.70;0.70;;;;;;;21.73;49.66;94527.50;5011620;28;98600;-63
2021/06/02 00:12:31;;;;;;;0.60;0.60;;;;;;;21.72;49.92;94520.47;5011954;28;97047;-63
2021/06/02 00:14:56;;;;;;;0.43;0.43;;;;;;;21.72;49.68;94523.22;4977179;28;99175;-63
2021/06/02 00:17:22;;;;;;;1.17;0.50;;;;;;;21.71;49.83;94514.19;5011566;28;99327;-63
2021/06/02 00:19:47;;;;;;;0.55;0.55;;;;;;;21.70;49.72;94512.63;4995992;28;96737;-64
2021/06/02 00:22:12;;;;;;;0.50;0.50;;;;;;;21.76;49.81;94515.69;4979770;28;96816;-65
2021/06/02 00:24:38;;;;;;;0.68;0.68;;;;;;;21.77;49.46;94517.25;5013640;28;99422;-66
2021/06/02 00:27:05;;;;;;;1.27;0.60;;;;;;;21.80;49.40;94505.44;5014990;28;99237;-62
2021/06/02 00:29:32;;;;;;;0.50;0.50;;;;;;;21.81;49.42;94487.75;5014998;28;96787;-61
2021/06/02 00:31:58;;;;;;;0.80;0.80;;;;;;;21.76;49.24;94497.25;5015030;28;96959;-63
2021/06/02 00:34:23;;;;;;;4.40;3.03;;;;;;;21.75;48.98;94508.66;5014802;28;99413;-61
2021/06/02 00:36:49;;;;;;;23.65;12.40;;;;;;;21.83;49.15;94510.13;5014284;28;99114;-62
2021/06/02 00:39:14;;;;;;;56.28;33.42;;;;;;;21.86;48.95;94514.00;5014821;28;96778;-62
2021/06/02 00:41:41;;;;;;;69.70;37.97;;;;;;;21.87;49.02;94516.38;5015077;28;96837;-62
2021/06/02 00:44:17;;;;;;;50.90;29.10;;;;;;;21.91;49.24;94514.34;4996734;28;99367;-62
2021/06/02 00:46:42;;;;;;;50.60;32.17;;;;;;;21.91;49.03;94522.59;5014594;28;99354;-62
2021/06/02 00:49:23;;;;;;;55.05;33.10;;;;;;;21.95;49.12;94519.03;5014161;28;96722;-62
2021/06/02 00:52:02;;;;;;;51.00;29.80;;;;;;;21.98;49.06;94523.72;5014445;28;96889;-62
2021/06/02 00:54:31;;;;;;;45.90;26.90;;;;;;;21.99;48.95;94517.03;5014483;28;99721;-62
2021/06/02 00:57:18;;;;;;;43.38;24.55;;;;;;;22.00;48.98;94510.31;5014356;28;99202;-62
2021/06/02 00:59:49;;;;;;;43.60;26.92;;;;;;;22.00;49.22;94518.56;5014664;28;96711;-64
2021/06/02 01:02:19;;;;;;;40.83;23.25;;;;;;;22.02;48.90;94519.72;5014652;28;97161;-65
2021/06/02 01:04:45;;;;;;;40.47;23.90;;;;;;;22.03;48.96;94520.50;5014319;28;99542;-64
2021/06/02 01:07:11;;;;;;;42.08;22.33;;;;;;;22.05;49.02;94520.88;5014229;28;99134;-63
2021/06/02 01:09:48;;;;;;;37.22;22.67;;;;;;;22.07;49.10;94529.50;5014407;28;96621;-64
2021/06/02 01:12:18;;;;;;;40.80;22.05;;;;;;;22.05;49.68;94531.88;4998150;28;96734;-63
2021/06/02 01:14:44;;;;;;;32.45;19.48;;;;;;;22.08;49.43;94533.00;5013137;28;99434;-61
2021/06/02 01:17:17;;;;;;;35.88;20.27;;;;;;;22.05;49.23;94529.88;5013950;28;99189;-62
2021/06/02 01:19:43;;;;;;;27.13;16.58;;;;;;;22.09;49.17;94535.34;5014385;28;96699;-63
2021/06/02 01:22:09;;;;;;;30.52;16.35;;;;;;;22.08;49.25;94525.53;5014016;28;96919;-63
2021/06/02 01:24:34;;;;;;;27.95;16.33;;;;;;;22.07;49.17;94524.00;5013617;28;99245;-62
2021/06/02 01:27:01;;;;;;;29.73;16.65;;;;;;;22.08;49.26;94525.53;5013894;28;96760;-62
2021/06/02 01:29:27;;;;;;;28.52;16.30;;;;;;;22.08;49.06;94498.03;5013746;28;96716;-60
2021/06/02 01:32:08;;;;;;;27.10;15.68;;;;;;;22.00;48.71;94508.34;5014375;28;97751;-62
2021/06/02 01:35:04;;;;;;;23.48;12.50;;;;;;;21.95;48.43;94508.03;5013920;28;99651;-56
2021/06/02 01:38:12;;;;;;;22.63;13.25;;;;;;;21.91;48.70;94517.09;5013674;28;99532;-56
2021/06/02 01:41:09;;;;;;;21.42;13.82;;;;;;;21.89;48.64;94524.97;4966093;28;96835;-58
2021/06/02 01:43:50;;;;;;;23.45;15.68;;;;;;;21.92;48.63;94524.16;4996231;28;97003;-59
2021/06/02 01:46:28;;;;;;;23.35;16.35;;;;;;;21.91;49.16;94521.81;5013552;28;99379;-58
2021/06/02 01:49:05;;;;;;;22.63;15.15;;;;;;;21.94;48.79;94528.47;4996185;28;98917;-56
2021/06/02 01:51:36;;;;;;;20.58;12.60;;;;;;;21.91;48.46;94524.56;5013564;28;96657;-54
2021/06/02 01:54:26;;;;;;;16.93;12.37;;;;;;;21.92;48.63;94529.66;5014055;28;97076;-56
2021/06/02 01:57:38;;;;;;;16.55;11.13;;;;;;;21.92;48.74;94528.88;5013425;28;98817;-57
2021/06/02 02:00:38;;;;;;;17.58;11.02;;;;;;;21.90;48.86;94526.53;5004875;28;100278;-52
2021/06/02 02:03:42;;;;;;;18.52;10.80;;;;;;;21.90;48.82;94526.53;5013431;28;96720;-54
2021/06/02 02:06:26;;;;;;;15.65;10.10;;;;;;;21.91;49.02;94528.09;5013804;28;96788;-56
2021/06/02 02:09:29;;;;;;;13.77;8.98;;;;;;;21.89;48.75;94530.47;5012729;28;99623;-57
2021/06/02 02:12:31;;;;;;;14.48;8.70;;;;;;;21.89;48.81;94524.97;5013099;28;99190;-56
2021/06/02 02:15:34;;;;;;;15.82;8.43;;;;;;;21.86;49.03;94531.31;5013244;28;96816;-53
2021/06/02 02:18:27;;;;;;;14.20;8.82;;;;;;;21.88;48.91;94531.66;5013439;28;96792;-56
2021/06/02 02:21:02;;;;;;;11.98;7.80;;;;;;;21.86;49.13;94538.75;5013054;28;99740;-52
2021/06/02 02:23:43;;;;;;;10.27;7.15;;;;;;;21.87;49.10;94538.34;4996215;28;99258;-53
2021/06/02 02:26:29;;;;;;;12.65;7.00;;;;;;;21.86;49.11;94534.06;4979109;28;96679;-57
2021/06/02 02:29:18;;;;;;;12.35;7.85;;;;;;;21.90;49.24;94542.25;5013461;28;96893;-56
2021/06/02 02:32:04;;;;;;;12.98;7.63;;;;;;;21.98;49.81;94542.97;5012863;28;99656;-60
2021/06/02 02:34:30;;;;;;;10.63;6.65;;;;;;;22.01;49.14;94545.66;5012678;28;99147;-61
2021/06/02 02:37:01;;;;;;;9.65;6.28;;;;;;;22.03;48.95;94548.00;5012737;28;97202;-62
2021/06/02 02:40:07;;;;;;;9.13;5.72;;;;;;;22.08;48.67;94549.50;4995708;28;96793;-62
2021/06/02 02:42:50;;;;;;;9.55;5.65;;;;;;;22.08;48.49;94553.03;4918614;28;99374;-61
2021/06/02 02:45:57;;;;;;;7.45;5.13;;;;;;;22.08;48.62;94555.78;4987736;28;99328;-61
2021/06/02 02:48:34;;;;;;;6.78;5.07;;;;;;;21.98;48.59;94537.47;4912351;28;97612;-61
2021/06/02 02:51:52;;;;;;;20.50;17.40;;;;;;;21.97;48.62;94563.41;4896315;28;97028;-60
2021/06/02 02:54:48;;;;;;;16.77;12.00;;;;;;;21.92;48.54;94559.13;4968909;28;99412;-60
2021/06/02 02:57:16;;;;;;;17.95;13.90;;;;;;;21.89;48.57;94551.69;5012047;28;99607;-62
2021/06/02 02:59:51;;;;;;;21.02;14.98;;;;;;;21.88;48.67;94561.91;4994099;28;97077;-60
2021/06/02 03:02:44;;;;;;;17.80;14.57;;;;;;;21.85;48.71;94562.72;4995246;28;96969;-61
2021/06/02 03:05:14;;;;;;;18.85;14.80;;;;;;;21.83;48.64;94559.63;5010861;28;99560;-63
2021/06/02 03:07:43;;;;;;;17.20;13.80;;;;;;;21.82;48.74;94569.03;5010211;28;100391;-61
2021/06/02 03:10:12;;;;;;;16.23;12.57;;;;;;;21.75;48.66;94552.63;4992680;28;96753;-61
2021/06/02 03:12:59;;;;;;;15.30;11.88;;;;;;;21.78;48.66;94562.81;4993114;28;97178;-62
2021/06/02 03:15:39;;;;;;;14.82;11.68;;;;;;;21.72;48.72;94557.00;5009813;28;99413;-61
2021/06/02 03:18:05;;;;;;;12.90;10.77;;;;;;;21.74;48.72;94567.56;4992212;28;99340;-61
2021/06/02 03:20:36;;;;;;;12.82;10.25;;;;;;;21.72;48.81;94559.75;5010696;28;97005;-63
2021/06/02 03:23:01;;;;;;;11.68;9.75;;;;;;;21.74;48.76;94564.81;5013083;28;96936;-62
2021/06/02 03:25:30;;;;;;;13.15;10.30;;;;;;;21.74;48.83;94570.31;5012078;28;99204;-60
2021/06/02 03:28:04;;;;;;;11.85;10.02;;;;;;;21.74;48.85;94573.84;4994676;28;99213;-61
2021/06/02 03:30:34;;;;;;;11.63;8.98;;;;;;;21.73;48.80;94577.00;5011743;28;96724;-62
2021/06/02 03:33:34;;;;;;;10.52;8.70;;;;;;;21.73;48.78;94577.00;4994766;28;96711;-60
2021/06/02 03:36:02;;;;;;;9.48;8.07;;;;;;;21.72;48.74;94583.69;5011913;28;99184;-63
2021/06/02 03:38:46;;;;;;;9.07;7.72;;;;;;;21.73;48.79;94582.50;5012277;28;99295;-61
2021/06/02 03:41:19;;;;;;;9.23;7.82;;;;;;;21.69;48.86;94581.75;5012406;28;96844;-61
2021/06/02 03:43:48;;;;;;;10.52;7.28;;;;;;;21.72;48.89;94597.44;5012528;28;96693;-61
2021/06/02 03:46:33;;;;;;;8.73;7.28;;;;;;;21.70;48.95;94600.59;4977763;28;99117;-61
2021/06/02 03:49:04;;;;;;;7.55;6.72;;;;;;;21.71;49.09;94606.84;4996920;28;97954;-61
2021/06/02 03:52:04;;;;;;;7.73;6.23;;;;;;;21.70;48.99;94605.28;5012218;28;97002;-62
2021/06/02 03:54:34;;;;;;;7.63;6.15;;;;;;;21.69;48.96;94609.22;4998318;28;97442;-62
2021/06/02 03:57:35;;;;;;;8.35;6.53;;;;;;;21.69;48.97;94614.72;5014877;28;99652;-60
2021/06/02 04:00:12;;;;;;;6.10;5.50;;;;;;;21.66;49.12;94605.34;5000023;28;99637;-61
2021/06/02 04:02:59;;;;;;;5.90;5.28;;;;;;;21.67;49.00;94606.91;5015697;28;96746;-61
2021/06/02 04:05:31;;;;;;;6.75;5.85;;;;;;;21.69;49.10;94620.22;4997823;28;96902;-60
2021/06/02 04:08:34;;;;;;;5.95;5.05;;;;;;;21.66;49.14;94621.03;5015495;28;99547;-61
2021/06/02 04:11:18;;;;;;;5.13;4.60;;;;;;;21.64;49.29;94624.22;5014938;28;99319;-62
2021/06/02 04:13:57;;;;;;;5.25;4.63;;;;;;;21.66;49.12;94626.53;5016095;28;96854;-63
2021/06/02 04:16:36;;;;;;;5.38;4.88;;;;;;;21.66;49.00;94627.34;5015744;28;96880;-60
2021/06/02 04:19:06;;;;;;;6.82;5.00;;;;;;;21.64;49.20;94628.91;5015259;28;99692;-63
2021/06/02 04:21:34;;;;;;;5.43;4.85;;;;;;;21.66;49.28;94623.78;5015145;28;98963;-60
2021/06/02 04:24:01;;;;;;;4.22;3.83;;;;;;;21.64;49.29;94632.47;5014240;28;96841;-61
2021/06/02 04:26:34;;;;;;;4.07;3.67;;;;;;;21.65;49.01;94627.72;4980757;28;97116;-60
2021/06/02 04:29:00;;;;;;;4.50;4.10;;;;;;;21.62;49.25;94634.81;5014903;28;99716;-61
2021/06/02 04:31:27;;;;;;;4.35;3.95;;;;;;;21.66;49.90;94637.53;5014808;28;99098;-63
2021/06/02 04:33:52;;;;;;;4.20;3.88;;;;;;;21.64;49.28;94635.19;5015121;28;96819;-60
2021/06/02 04:36:18;;;;;;;4.10;3.72;;;;;;;21.64;49.66;94637.94;4980764;28;96900;-62
2021/06/02 04:38:43;;;;;;;4.10;3.70;;;;;;;21.65;49.59;94641.47;4997232;28;98489;-60
2021/06/02 04:41:09;;;;;;;3.85;3.45;;;;;;;21.64;49.51;94650.91;5015370;28;97597;-60
2021/06/02 04:43:36;;;;;;;3.25;2.90;;;;;;;21.64;49.18;94648.94;5014912;28;96829;-63
2021/06/02 04:46:04;;;;;;;3.67;3.38;;;;;;;21.65;49.52;94653.25;5015074;28;96947;-61
2021/06/02 04:48:29;;;;;;;3.00;2.80;;;;;;;21.65;50.06;94657.97;5014373;28;99435;-61
2021/06/02 04:51:03;;;;;;;4.40;3.85;;;;;;;21.64;50.22;94662.69;5014540;28;100278;-62
2021/06/02 04:53:39;;;;;;;3.05;2.85;;;;;;;21.64;49.48;94650.91;4981420;28;96698;-61
2021/06/02 04:56:24;;;;;;;3.60;3.30;;;;;;;21.65;49.69;94652.47;4996814;28;96788;-60
2021/06/02 04:59:27;;;;;;;3.08;2.80;;;;;;;21.65;50.50;94652.47;5014787;28;99090;-61
2021/06/02 05:02:13;;;;;;;3.88;3.08;;;;;;;21.60;49.79;94657.19;4996652;28;99200;-63
2021/06/02 05:05:12;;;;;;;3.35;2.80;;;;;;;21.62;49.96;94657.59;5014801;28;96881;-60
2021/06/02 05:08:11;;;;;;;3.10;2.88;;;;;;;21.60;49.98;94657.19;5014857;28;96789;-63
2021/06/02 05:11:07;;;;;;;2.88;2.60;;;;;;;21.64;50.16;94661.91;5014434;28;99568;-63
2021/06/02 05:14:00;;;;;;;2.80;2.60;;;;;;;21.61;49.96;94658.75;5014332;28;99449;-61
2021/06/02 05:16:37;;;;;;;2.97;2.42;;;;;;;21.62;49.95;94671.31;5013721;28;96995;-60
2021/06/02 05:19:22;;;;;;;2.65;2.45;;;;;;;21.62;49.95;94671.31;5014548;28;96725;-63
2021/06/02 05:22:06;;;;;;;2.78;2.20;;;;;;;21.62;49.94;94674.06;5014140;28;99517;-61
2021/06/02 05:24:50;;;;;;;2.58;2.38;;;;;;;21.64;50.14;94668.19;5014092;28;99629;-61
2021/06/02 05:27:54;;;;;;;2.50;2.30;;;;;;;21.64;50.06;94664.63;5014253;28;96906;-61
2021/06/02 05:30:46;;;;;;;2.47;2.28;;;;;;;21.61;50.17;94664.22;4962409;28;97318;-61
2021/06/02 05:33:30;;;;;;;2.50;2.30;;;;;;;21.60;50.40;94673.66;5014120;28;99606;-61
2021/06/02 05:36:04;;;;;;;2.00;1.90;;;;;;;21.60;50.03;94679.16;5014015;28;99386;-61
2021/06/02 05:38:35;;;;;;;2.10;2.00;;;;;;;21.60;50.11;94683.91;5014527;28;96641;-61
2021/06/02 05:41:10;;;;;;;2.03;1.93;;;;;;;21.60;50.36;94687.41;5014010;28;96923;-60
2021/06/02 05:44:09;;;;;;;1.85;1.75;;;;;;;21.61;50.18;94680.72;4995251;28;99842;-63
2021/06/02 05:47:16;;;;;;;2.22;2.00;;;;;;;21.61;50.33;94675.22;5013617;28;99549;-63
2021/06/02 05:50:19;;;;;;;2.10;2.00;;;;;;;21.60;50.25;94673.66;4932769;28;96882;-61
2021/06/02 05:53:02;;;;;;;2.30;2.10;;;;;;;21.61;50.11;94675.22;5014003;28;96860;-62
2021/06/02 05:55:40;;;;;;;1.77;1.67;;;;;;;21.61;50.26;94669.72;5013621;28;99213;-63
2021/06/02 05:58:24;;;;;;;2.10;2.00;;;;;;;21.61;50.27;94672.47;5013830;28;98960;-63
2021/06/02 06:01:11;;;;;;;1.77;1.67;;;;;;;21.62;50.32;94670.56;5013976;28;96651;-60
2021/06/02 06:04:07;;;;;;;2.00;1.90;;;;;;;21.61;50.40;94669.72;5014382;28;97558;-61
2021/06/02 06:06:59;;;;;;;2.00;1.90;;;;;;;21.63;50.51;94677.63;5013580;28;99254;-63
2021/06/02 06:09:55;;;;;;;1.92;1.83;;;;;;;21.62;50.29;94676.81;5013086;28;99471;-63
2021/06/02 06:12:26;;;;;;;2.10;1.90;;;;;;;21.61;50.27;94669.72;5013292;28;96673;-61
2021/06/02 06:15:27;;;;;;;2.20;2.10;;;;;;;21.64;50.34;94672.88;5013852;28;96806;-62
2021/06/02 06:17:58;;;;;;;1.90;1.70;;;;;;;21.59;50.41;94672.09;4997808;28;100031;-61
2021/06/02 06:21:01;;;;;;;1.83;1.73;;;;;;;21.65;50.23;94679.94;4979421;28;99312;-62
2021/06/02 06:23:46;;;;;;;1.92;1.83;;;;;;;21.65;50.28;94672.50;5013501;28;96856;-61
2021/06/02 06:26:21;;;;;;;1.73;1.63;;;;;;;21.66;50.35;94678.75;4973481;28;96742;-62
2021/06/02 06:29:04;;;;;;;2.05;1.90;;;;;;;21.66;50.22;94670.50;4972364;28;99020;-61
2021/06/02 06:31:32;;;;;;;1.83;1.73;;;;;;;21.67;50.14;94683.06;4972245;28;99185;-60
2021/06/02 06:33:57;;;;;;;1.60;1.50;;;;;;;21.67;50.04;94681.13;4972459;28;96769;-62
2021/06/02 06:36:24;;;;;;;1.77;1.67;;;;;;;21.70;50.24;94679.50;4973316;28;97122;-61
2021/06/02 06:39:23;;;;;;;1.98;1.80;;;;;;;21.72;50.27;94680.69;4971448;28;99594;-61
2021/06/02 06:41:49;;;;;;;1.52;1.45;;;;;;;21.71;50.51;94683.81;4965420;28;99309;-61
2021/06/02 06:44:14;;;;;;;2.22;1.50;;;;;;;21.71;50.40;94683.81;4972145;28;96823;-63
2021/06/02 06:46:40;;;;;;;1.73;1.63;;;;;;;21.72;50.28;94690.88;4972124;28;96990;-62
2021/06/02 06:49:05;;;;;;;1.60;1.50;;;;;;;21.72;50.16;94688.13;4955280;28;99500;-60
2021/06/02 06:51:31;;;;;;;1.67;1.58;;;;;;;21.74;50.38;94688.50;4955039;28;99357;-60
2021/06/02 06:53:56;;;;;;;1.98;1.70;;;;;;;21.73;50.60;94686.94;4971745;28;96747;-63
2021/06/02 06:56:22;;;;;;;1.80;1.70;;;;;;;21.70;50.34;94688.56;4956180;28;97018;-60
2021/06/02 06:58:47;;;;;;;1.60;1.50;;;;;;;21.75;50.46;94684.56;4972857;28;99919;-61
2021/06/02 07:01:16;;;;;;;1.55;1.45;;;;;;;21.75;50.55;94679.06;4972440;28;99126;-61
2021/06/02 07:03:42;;;;;;;1.75;1.65;;;;;;;21.73;50.40;94676.75;4972571;28;96992;-61
2021/06/02 07:06:08;;;;;;;1.83;1.73;;;;;;;21.73;50.50;94682.25;4972920;28;96960;-61
2021/06/02 07:08:33;;;;;;;1.60;1.50;;;;;;;21.72;50.55;94679.88;4973046;28;98451;-63
2021/06/02 07:11:02;;;;;;;1.55;1.45;;;;;;;21.74;50.34;94683.81;4971344;28;97830;-62
2021/06/02 07:13:28;;;;;;;1.45;1.35;;;;;;;21.74;50.45;94678.31;4972878;28;96671;-62
2021/06/02 07:15:54;;;;;;;1.52;1.50;;;;;;;21.73;50.53;94681.44;4955081;28;97009;-61
2021/06/02 07:18:20;;;;;;;1.70;1.60;;;;;;;21.75;50.31;94684.56;4955051;28;100170;-61
2021/06/02 07:20:45;;;;;;;1.50;1.40;;;;;;;21.76;50.37;94680.63;4954984;28;99389;-60
2021/06/02 07:23:13;;;;;;;1.30;1.20;;;;;;;21.75;50.24;94682.63;4955253;28;96726;-61
2021/06/02 07:25:38;;;;;;;1.85;1.30;;;;;;;21.76;50.38;94675.16;5006118;28;96959;-61
2021/06/02 07:28:07;;;;;;;1.65;1.55;;;;;;;21.77;50.47;94684.94;4993661;28;99394;-61
2021/06/02 07:30:33;;;;;;;1.40;1.35;;;;;;;21.78;50.22;94683.75;4977248;28;99635;-61
2021/06/02 07:32:58;;;;;;;1.48;1.40;;;;;;;21.78;50.33;94683.75;5012599;28;96840;-61
2021/06/02 07:35:24;;;;;;;2.10;1.80;;;;;;;21.81;49.57;94688.44;5012351;28;96925;-61
2021/06/02 07:37:49;;;;;;;2.58;1.60;;;;;;;21.80;49.98;94681.41;5012183;28;99060;-61
2021/06/02 07:40:15;;;;;;;2.55;1.77;;;;;;;21.81;49.58;94677.47;4994267;28;99129;-62
2021/06/02 07:42:41;;;;;;;1.30;1.20;;;;;;;21.82;49.58;94672.72;5012332;28;96664;-60
2021/06/02 07:45:06;;;;;;;2.55;1.75;;;;;;;21.82;49.64;94684.53;4977987;28;96908;-63
2021/06/02 07:47:32;;;;;;;1.80;1.70;;;;;;;21.85;49.60;94688.41;5011460;28;99758;-62
2021/06/02 07:49:58;;;;;;;1.98;1.60;;;;;;;21.83;49.64;94686.06;5012010;28;99100;-60
2021/06/02 07:52:24;;;;;;;1.70;1.60;;;;;;;21.84;49.68;94671.16;5011599;28;96970;-62
2021/06/02 07:54:50;;;;;;;1.88;1.70;;;;;;;21.85;49.75;94666.41;5012215;28;96907;-61
2021/06/02 07:57:15;;;;;;;1.67;1.55;;;;;;;21.85;49.84;94672.72;4993529;28;99260;-61
2021/06/02 07:59:40;;;;;;;1.60;1.42;;;;;;;21.84;49.74;94670.34;5011783;28;99169;-61
2021/06/02 08:02:06;;;;;;;1.55;1.45;;;;;;;21.85;49.69;94678.22;5011893;28;96743;-61
2021/06/02 08:04:31;;;;;;;2.75;1.70;;;;;;;21.85;49.62;94683.69;5011833;28;97707;-60
2021/06/02 08:06:57;;;;;;;1.90;1.80;;;;;;;21.85;49.69;94689.19;4977064;28;99670;-62
2021/06/02 08:09:25;;;;;;;2.38;2.17;;;;;;;21.85;49.66;94689.19;5011905;28;98950;-61
2021/06/02 08:11:51;;;;;;;1.60;1.50;;;;;;;21.87;49.62;94688.78;5011770;28;96809;-61
2021/06/02 08:14:16;;;;;;;2.00;1.90;;;;;;;21.86;49.70;94685.28;5011703;28;96866;-60
2021/06/02 08:16:42;;;;;;;2.53;2.15;;;;;;;21.87;49.78;94673.09;5011029;28;99184;-60
2021/06/02 08:19:07;;;;;;;2.63;1.80;;;;;;;21.88;49.68;94688.41;5011668;28;99312;-61
2021/06/02 08:21:33;;;;;;;2.08;1.98;;;;;;;21.87;49.55;94689.56;5011663;28;96784;-61
2021/06/02 08:23:58;;;;;;;2.13;2.03;;;;;;;21.87;49.80;94675.84;5011418;28;96964;-61
2021/06/02 08:26:24;;;;;;;2.45;2.25;;;;;;;21.87;49.54;94680.53;5011696;28;98533;-61
2021/06/02 08:28:49;;;;;;;2.08;1.95;;;;;;;21.89;49.48;94678.16;5011435;28;99395;-61
2021/06/02 08:31:15;;;;;;;1.98;1.88;;;;;;;21.89;49.61;94689.94;5011477;28;96953;-61
2021/06/02 08:33:42;;;;;;;2.47;2.30;;;;;;;21.86;49.53;94690.78;5011995;28;96944;-62
2021/06/02 08:36:08;;;;;;;2.92;2.50;;;;;;;21.88;49.61;94688.41;5011432;28;99481;-60
2021/06/02 08:38:34;;;;;;;2.42;2.28;;;;;;;21.90;49.60;94682.47;5011547;28;98765;-61
2021/06/02 08:40:59;;;;;;;1.98;1.85;;;;;;;21.90;49.48;94677.78;5012361;28;96882;-61
2021/06/02 08:43:24;;;;;;;2.17;2.00;;;;;;;21.92;49.51;94680.91;4996881;28;96962;-64
2021/06/02 08:45:50;;;;;;;2.15;2.05;;;;;;;21.92;49.89;94678.16;4996686;28;97926;-62
2021/06/02 08:48:15;;;;;;;1.92;1.83;;;;;;;21.95;49.77;94686.78;4996347;28;99352;-61
2021/06/02 08:50:41;;;;;;;4.55;2.50;;;;;;;21.95;49.97;94684.03;5014525;28;96695;-61
2021/06/02 08:53:06;;;;;;;6.63;2.42;;;;;;;21.98;50.25;94680.44;5014619;28;96935;-62
2021/06/02 08:55:32;;;;;;;6.07;2.65;;;;;;;21.99;51.11;94674.53;5013962;28;99468;-60
2021/06/02 08:57:57;;;;;;;8.98;2.50;;;;;;;22.01;50.65;94674.91;5014830;28;99175;-60
2021/06/02 09:00:23;;;;;;;6.40;3.08;;;;;;;22.04;51.46;94684.31;4980082;28;96751;-61
2021/06/02 09:02:54;;;;;;;12.27;2.83;;;;;;;22.03;51.21;94689.03;5014342;28;97213;-63
2021/06/02 09:05:19;;;;;;;6.80;2.55;;;;;;;22.00;51.33;94678.06;4996585;28;99862;-61
2021/06/02 09:07:45;;;;;;;8.20;3.03;;;;;;;22.02;51.56;94670.97;5014224;28;99531;-60
2021/06/02 09:10:11;;;;;;;8.68;2.80;;;;;;;22.06;51.64;94671.72;4979409;28;97669;-60
2021/06/02 09:12:38;;;;;;;9.85;2.45;;;;;;;22.06;51.53;94665.44;5014552;28;97003;-60
2021/06/02 09:15:10;;;;;;;9.43;2.45;;;;;;;22.12;51.36;94674.78;5013851;28;99571;-59
2021/06/02 09:17:56;;;;;;;3.78;2.50;;;;;;;22.12;51.15;94685.78;5011346;28;99220;-60
2021/06/02 09:20:43;;;;;;;7.70;2.58;;;;;;;22.12;50.97;94680.28;5012167;28;96708;-59
2021/06/02 09:23:27;;;;;;;6.57;2.50;;;;;;;22.11;50.93;94678.72;5012699;28;97311;-59
2021/06/02 09:26:18;;;;;;;4.68;2.60;;;;;;;22.09;50.77;94669.34;5010906;28;99465;-59
2021/06/02 09:28:50;;;;;;;6.47;2.53;;;;;;;21.91;44.86;94679.31;4998764;28;99953;-60
2021/06/02 09:31:34;;;;;;;3.88;2.97;;;;;;;21.86;43.41;94685.28;5013338;28;96694;-59
2021/06/02 09:34:05;;;;;;;7.15;3.50;;;;;;;21.74;43.14;94672.81;5014156;28;96915;-60
2021/06/02 09:36:37;;;;;;;5.63;3.40;;;;;;;21.72;42.49;94677.13;5013512;28;99400;-59
2021/06/02 09:39:04;;;;;;;4.97;4.45;;;;;;;21.59;42.94;94665.84;5013394;28;98871;-60
2021/06/02 09:41:30;;;;;;;6.75;4.53;;;;;;;21.62;41.62;94671.31;5013822;28;96972;-57
2021/06/02 09:43:56;;;;;;;5.32;3.55;;;;;;;21.55;41.83;94665.09;5013865;28;96937;-60
2021/06/02 09:46:22;;;;;;;6.60;3.03;;;;;;;21.50;41.06;94674.53;5013324;28;99330;-59
2021/06/02 09:48:47;;;;;;;3.22;2.83;;;;;;;21.42;41.31;94679.31;5013245;28;99503;-60
2021/06/02 09:51:32;;;;;;;2.83;2.63;;;;;;;21.43;41.22;94669.88;5013251;28;96863;-60
2021/06/02 09:53:58;;;;;;;5.90;4.22;;;;;;;21.39;41.64;94673.84;5013277;28;96884;-59
2021/06/02 09:56:36;;;;;;;5.03;3.97;;;;;;;21.34;42.01;94669.56;5013008;28;99107;-61
2021/06/02 09:59:06;;;;;;;5.63;4.43;;;;;;;21.32;41.49;94669.97;5013299;28;99190;-61
2021/06/02 10:01:55;;;;;;;3.83;3.35;;;;;;;21.36;41.64;94677.41;5013592;28;96687;-59
2021/06/02 10:04:32;;;;;;;3.33;3.03;;;;;;;21.31;42.08;94678.59;5013995;28;96900;-60
2021/06/02 10:06:57;;;;;;;3.72;2.75;;;;;;;21.22;42.23;94686.50;5013466;28;99437;-59
2021/06/02 10:09:29;;;;;;;5.00;2.90;;;;;;;21.26;41.72;94677.06;5013022;28;98970;-60
2021/06/02 10:11:55;;;;;;;;;;;;;;;21.21;41.63;94679.44;5013791;28;96799;-60
2021/06/02 10:14:21;;;;;;;4.05;2.50;;;;;;;21.12;41.46;94688.16;5013969;28;96934;-59
2021/06/02 10:16:47;;;;;;;4.45;3.10;;;;;;;21.11;41.58;94678.34;5012824;28;99614;-60
2021/06/02 10:19:12;;;;;;;4.20;2.90;;;;;;;21.11;41.25;94672.84;5013095;28;99485;-59
2021/06/02 10:21:49;;;;;;;4.97;2.72;;;;;;;21.06;41.36;94684.25;4995043;28;97043;-61
2021/06/02 10:24:14;;;;;;;3.75;2.80;;;;;;;21.08;41.06;94677.19;5012621;28;96985;-60
2021/06/02 10:26:40;;;;;;;4.53;4.05;;;;;;;21.09;41.48;94677.97;5012951;28;98777;-59
2021/06/02 10:29:06;;;;;;;13.15;10.90;;;;;;;21.11;41.29;94675.59;5012984;28;99511;-58
2021/06/02 10:31:31;;;;;;;13.60;8.15;;;;;;;21.14;41.56;94683.84;5013269;28;97090;-60
2021/06/02 10:33:57;;;;;;;8.38;6.68;;;;;;;21.20;42.23;94678.69;5013351;28;96930;-60
2021/06/02 10:36:23;;;;;;;10.95;6.05;;;;;;;21.25;42.31;94681.00;4995156;28;97989;-61
2021/06/02 10:38:55;;;;;;;9.60;5.80;;;;;;;21.29;42.50;94676.28;4978480;28;99583;-61
2021/06/02 10:41:29;;;;;;;8.85;5.55;;;;;;;21.39;42.41;94676.59;4995127;28;98005;-63
2021/06/02 10:44:02;;;;;;;8.57;4.22;;;;;;;21.29;41.78;94669.97;4994575;28;96842;-61
2021/06/02 10:46:30;;;;;;;7.25;4.88;;;;;;;21.37;42.13;94681.72;4992834;28;99989;-60
2021/06/02 10:48:56;;;;;;;5.65;4.53;;;;;;;21.36;42.14;94669.16;4993031;28;99641;-61
2021/06/02 10:51:25;;;;;;;6.07;4.57;;;;;;;21.37;42.68;94676.22;5011300;28;97014;-61
2021/06/02 10:54:12;;;;;;;8.80;4.70;;;;;;;21.45;43.06;94678.50;5011041;28;97461;-60
2021/06/02 10:56:56;;;;;;;7.30;4.60;;;;;;;21.45;43.05;94677.75;4993928;28;99453;-60
2021/06/02 10:59:28;;;;;;;4.63;4.18;;;;;;;21.44;42.96;94676.94;5011399;28;99099;-61
2021/06/02 11:02:05;;;;;;;9.73;4.30;;;;;;;21.49;42.93;94689.44;5013296;28;96753;-60
2021/06/02 11:04:31;;;;;;;7.85;4.80;;;;;;;21.51;43.14;94689.06;5011868;28;96969;-61
2021/06/02 11:07:15;;;;;;;4.40;3.95;;;;;;;21.52;42.99;94683.16;5012813;28;99508;-60
2021/06/02 11:10:00;;;;;;;4.22;3.78;;;;;;;21.54;43.42;94683.53;5012326;28;99004;-59
2021/06/02 11:12:26;;;;;;;6.65;4.15;;;;;;;21.54;42.90;94683.53;5011925;28;96752;-61
2021/06/02 11:14:52;;;;;;;6.57;4.22;;;;;;;21.55;42.98;94693.34;5013088;28;97008;-61
2021/06/02 11:17:18;;;;;;;5.78;3.97;;;;;;;21.54;43.19;94686.28;5012153;28;99851;-60
2021/06/02 11:19:52;;;;;;;5.55;3.90;;;;;;;21.58;43.32;94687.03;5012449;28;99173;-60
2021/06/02 11:22:19;;;;;;;8.30;4.20;;;;;;;21.57;43.21;94690.97;5012426;28;96781;-61
2021/06/02 11:24:45;;;;;;;7.65;4.07;;;;;;;21.57;43.17;94688.22;5011696;28;96882;-60
2021/06/02 11:27:14;;;;;;;4.72;3.67;;;;;;;21.59;43.39;94688.59;4994195;28;97090;-60
2021/06/02 11:29:48;;;;;;;5.32;4.20;;;;;;;21.60;43.23;94684.66;5012536;28;99315;-61
2021/06/02 11:32:24;;;;;;;7.93;4.40;;;;;;;21.58;43.41;94686.25;5012414;28;96778;-60
2021/06/02 11:34:53;;;;;;;4.25;3.80;;;;;;;21.58;43.45;94684.28;5012683;28;97301;-61
2021/06/02 11:37:20;;;;;;;8.02;4.03;;;;;;;21.62;43.60;94687.81;5011533;28;99820;-61
2021/06/02 11:39:47;;;;;;;4.50;3.88;;;;;;;21.65;43.58;94685.44;5011964;28;99150;-60
2021/06/02 11:42:30;;;;;;;4.32;3.92;;;;;;;21.66;43.65;94684.25;5012405;28;96879;-61
2021/06/02 11:45:17;;;;;;;5.82;4.68;;;;;;;21.68;43.57;94685.44;5012474;28;96942;-60
2021/06/02 11:47:52;;;;;;;6.65;4.22;;;;;;;21.70;43.22;94683.06;5011493;28;99653;-61
2021/06/02 11:50:19;;;;;;;4.32;3.85;;;;;;;21.71;43.54;94678.31;5011927;28;99075;-61
2021/06/02 11:52:52;;;;;;;6.28;4.38;;;;;;;21.73;43.53;94675.97;5012434;28;96787;-61
2021/06/02 11:55:17;;;;;;;7.85;4.90;;;;;;;21.75;43.63;94690.06;5012812;28;96840;-60
2021/06/02 11:57:48;;;;;;;7.07;3.90;;;;;;;21.75;44.06;94679.88;4977770;28;99528;-60
2021/06/02 12:00:21;;;;;;;5.73;4.30;;;;;;;21.74;43.97;94678.31;5011846;28;99319;-61
2021/06/02 12:03:04;;;;;;;4.28;3.88;;;;;;;21.75;44.05;94679.06;5011563;28;97277;-60